Time;durP1;ratioP1;P1;durP2;ratioP2;P2;SDS_P1;SDS_P2;PMS_P1;PMS_P2;Temp;Humidity;BMP_temperature;BMP_pressure;BME280_temperature;BME280_humidity;BME280_pressure;Samples;Min_cycle;Max_cycle;Signal;HPM_P1;HPM_P2
2022/08/17 00:00:27;;;;;;;36.55;33.03;;;19.70;99.90;;;;;;4968086;28;20044;-77
2022/08/17 00:02:55;;;;;;;37.15;33.83;;;19.70;99.90;;;;;;5003324;28;20166;-77
2022/08/17 00:05:21;;;;;;;37.60;34.17;;;19.70;99.90;;;;;;5003161;28;20146;-76
2022/08/17 00:07:47;;;;;;;36.97;33.58;;;19.60;99.90;;;;;;4982810;28;20072;-77
2022/08/17 00:10:13;;;;;;;37.50;34.10;;;19.60;99.90;;;;;;5017578;28;20514;-76
2022/08/17 00:12:41;;;;;;;37.13;33.92;;;19.60;99.90;;;;;;5015887;28;20363;-76
2022/08/17 00:15:08;;;;;;;38.83;35.35;;;19.70;99.90;;;;;;5017074;28;20535;-77
2022/08/17 00:17:35;;;;;;;40.95;37.13;;;19.70;99.90;;;;;;5015530;28;20052;-76
2022/08/17 00:20:02;;;;;;;42.00;37.95;;;19.60;99.90;;;;;;5017402;28;20051;-77
2022/08/17 00:22:29;;;;;;;40.63;36.80;;;19.60;99.90;;;;;;5015762;28;20053;-76
2022/08/17 00:24:55;;;;;;;41.05;37.53;;;19.60;99.90;;;;;;5005955;28;20509;-76
2022/08/17 00:27:21;;;;;;;44.28;40.38;;;19.60;99.90;;;;;;4998913;28;20049;-76
2022/08/17 00:29:47;;;;;;;41.47;37.88;;;19.60;99.90;;;;;;4982263;28;20037;-77
2022/08/17 00:32:14;;;;;;;43.28;39.47;;;19.60;99.90;;;;;;4982287;28;20759;-76
2022/08/17 00:34:40;;;;;;;43.03;38.95;;;19.60;99.90;;;;;;4999029;28;20045;-76
2022/08/17 00:37:06;;;;;;;44.83;40.88;;;19.60;99.90;;;;;;5002719;28;20691;-77
2022/08/17 00:39:33;;;;;;;46.08;41.97;;;19.50;99.90;;;;;;4969137;28;20041;-76
2022/08/17 00:41:59;;;;;;;47.00;42.50;;;19.50;99.90;;;;;;5016084;28;20060;-76
2022/08/17 00:44:25;;;;;;;45.97;41.85;;;19.40;99.90;;;;;;4969052;28;20520;-76
2022/08/17 00:46:51;;;;;;;46.20;42.00;;;19.50;99.90;;;;;;4979400;28;20041;-76
2022/08/17 00:49:22;;;;;;;50.10;45.58;;;19.50;99.90;;;;;;5015556;28;20497;-77
2022/08/17 00:51:55;;;;;;;49.85;44.83;;;19.40;99.90;;;;;;4999465;28;20120;-76
2022/08/17 00:54:34;;;;;;;49.45;44.78;;;19.40;99.90;;;;;;5030968;28;20037;-76
2022/08/17 00:57:09;;;;;;;51.28;46.40;;;19.40;99.90;;;;;;5015488;28;20061;-77
2022/08/17 00:59:43;;;;;;;56.22;50.53;;;19.40;99.90;;;;;;5022815;28;20110;-77
2022/08/17 01:02:13;;;;;;;53.83;49.03;;;19.30;99.90;;;;;;4999954;28;20080;-76
2022/08/17 01:04:40;;;;;;;52.88;47.88;;;19.30;99.90;;;;;;5034099;28;20045;-77
2022/08/17 01:07:06;;;;;;;50.00;45.38;;;19.30;99.90;;;;;;5048130;28;20075;-77
2022/08/17 01:09:33;;;;;;;53.05;48.03;;;19.30;99.90;;;;;;5022970;28;20049;-76
2022/08/17 01:11:59;;;;;;;52.85;47.85;;;19.30;99.90;;;;;;5005249;28;20045;-76
2022/08/17 01:14:25;;;;;;;55.30;50.17;;;19.30;99.90;;;;;;5017942;28;20045;-76
2022/08/17 01:16:54;;;;;;;55.78;50.35;;;19.30;99.90;;;;;;5032299;28;20607;-76
2022/08/17 01:19:24;;;;;;;52.25;47.25;;;19.20;99.90;;;;;;4983986;28;20534;-76
2022/08/17 01:22:06;;;;;;;55.40;49.95;;;19.20;99.90;;;;;;5001347;28;20045;-77
2022/08/17 01:24:38;;;;;;;54.00;48.97;;;19.20;99.90;;;;;;4983303;28;20178;-76
2022/08/17 01:27:05;;;;;;;51.55;46.85;;;19.20;99.90;;;;;;5012554;28;20635;-77
2022/08/17 01:29:32;;;;;;;53.97;48.95;;;19.10;99.90;;;;;;4999114;28;20547;-76
2022/08/17 01:32:02;;;;;;;56.00;50.55;;;19.10;99.90;;;;;;5007685;28;20149;-77
2022/08/17 01:34:28;;;;;;;53.35;48.45;;;19.10;99.90;;;;;;5013184;28;20721;-76
2022/08/17 01:36:55;;;;;;;54.22;49.03;;;19.00;99.90;;;;;;5035707;28;20059;-76
2022/08/17 01:39:33;;;;;;;54.58;49.45;;;19.00;99.90;;;;;;5006371;28;20083;-77
2022/08/17 01:42:25;;;;;;;52.53;47.53;;;19.00;99.90;;;;;;5052188;28;20168;-77
2022/08/17 01:44:56;;;;;;;53.10;48.03;;;19.00;99.90;;;;;;5012783;28;20041;-76
2022/08/17 01:47:22;;;;;;;48.97;44.55;;;18.80;99.90;;;;;;5019136;28;20052;-76
2022/08/17 01:49:49;;;;;;;48.72;44.45;;;18.80;99.90;;;;;;4983201;28;20053;-77
2022/08/17 01:52:16;;;;;;;46.88;42.58;;;18.80;99.90;;;;;;4998659;28;20164;-77
2022/08/17 01:54:46;;;;;;;49.63;45.00;;;18.80;99.90;;;;;;5016158;28;20098;-77
2022/08/17 01:57:12;;;;;;;47.70;43.55;;;18.80;99.90;;;;;;5003420;28;20059;-76
2022/08/17 01:59:39;;;;;;;48.22;43.70;;;18.80;99.90;;;;;;5003037;28;20044;-77
2022/08/17 02:02:06;;;;;;;49.88;44.95;;;18.80;99.90;;;;;;5029832;28;20052;-77
2022/08/17 02:04:32;;;;;;;50.38;45.30;;;18.80;99.90;;;;;;5043572;28;20398;-77
2022/08/17 02:06:58;;;;;;;52.42;47.28;;;18.80;99.90;;;;;;5020308;28;20052;-76
2022/08/17 02:09:27;;;;;;;50.63;45.88;;;18.80;99.90;;;;;;5029661;28;20406;-76
2022/08/17 02:11:55;;;;;;;50.60;45.78;;;18.80;99.90;;;;;;4980147;28;20036;-77
2022/08/17 02:14:22;;;;;;;53.85;48.55;;;18.70;99.90;;;;;;5002812;28;20444;-77
2022/08/17 02:16:48;;;;;;;52.33;47.40;;;18.80;99.90;;;;;;5003348;28;20504;-76
2022/08/17 02:19:16;;;;;;;53.53;48.38;;;18.70;99.90;;;;;;5017470;28;20155;-76
2022/08/17 02:21:45;;;;;;;52.75;47.63;;;18.80;99.90;;;;;;5014775;28;20578;-76
2022/08/17 02:24:20;;;;;;;51.85;47.03;;;18.80;99.90;;;;;;5020039;28;20132;-75
2022/08/17 02:26:46;;;;;;;52.53;47.53;;;18.80;99.90;;;;;;5017794;28;20049;-76
2022/08/17 02:29:13;;;;;;;51.80;47.08;;;18.80;99.90;;;;;;5022636;28;20477;-77
2022/08/17 02:31:41;;;;;;;53.20;48.13;;;18.80;99.90;;;;;;4962949;28;20044;-77
2022/08/17 02:34:07;;;;;;;53.45;48.15;;;18.70;99.90;;;;;;5002890;28;20129;-77
2022/08/17 02:36:35;;;;;;;53.60;48.50;;;18.70;99.90;;;;;;5022457;28;20059;-76
2022/08/17 02:39:03;;;;;;;50.67;45.58;;;18.70;99.90;;;;;;5002390;28;20044;-76
2022/08/17 02:41:29;;;;;;;49.63;45.05;;;18.70;99.90;;;;;;5018915;28;20088;-77
2022/08/17 02:43:56;;;;;;;50.53;45.63;;;18.70;99.90;;;;;;4984139;28;20041;-77
2022/08/17 02:46:22;;;;;;;50.60;45.67;;;18.70;99.90;;;;;;5049843;28;20057;-76
2022/08/17 02:48:48;;;;;;;51.10;46.20;;;18.80;99.90;;;;;;4969100;28;20045;-76
2022/08/17 02:51:17;;;;;;;48.65;44.10;;;18.70;99.90;;;;;;5026968;28;20049;-77
2022/08/17 02:53:43;;;;;;;51.70;46.67;;;18.70;99.90;;;;;;5014674;28;20758;-77
2022/08/17 02:56:10;;;;;;;49.70;44.53;;;18.70;99.90;;;;;;4970682;28;20053;-76
2022/08/17 02:58:36;;;;;;;50.15;45.42;;;18.70;99.90;;;;;;4983676;28;20413;-76
2022/08/17 03:01:05;;;;;;;49.65;44.78;;;18.70;99.90;;;;;;5035666;28;20131;-77
2022/08/17 03:03:31;;;;;;;49.72;45.03;;;18.70;99.90;;;;;;4984547;28;20041;-76
2022/08/17 03:05:57;;;;;;;49.55;44.95;;;18.60;99.90;;;;;;5016049;28;20045;-77
2022/08/17 03:08:24;;;;;;;49.45;44.67;;;18.60;99.90;;;;;;5004156;28;20052;-76
2022/08/17 03:10:50;;;;;;;52.08;47.25;;;18.60;99.90;;;;;;5006597;28;20037;-76
2022/08/17 03:13:16;;;;;;;50.28;45.72;;;18.60;99.90;;;;;;5033451;28;20489;-76
2022/08/17 03:15:44;;;;;;;48.88;44.15;;;18.60;99.90;;;;;;4985858;28;20615;-76
2022/08/17 03:18:18;;;;;;;50.28;45.50;;;18.60;99.90;;;;;;5027600;28;20037;-77
2022/08/17 03:20:45;;;;;;;50.13;45.22;;;18.60;99.90;;;;;;5014611;28;20045;-76
2022/08/17 03:23:11;;;;;;;46.50;42.10;;;18.50;99.90;;;;;;5003796;28;20048;-77
2022/08/17 03:25:45;;;;;;;49.40;44.60;;;18.50;99.90;;;;;;5030489;28;20103;-76
2022/08/17 03:28:11;;;;;;;47.47;43.03;;;18.50;99.90;;;;;;5018186;28;20072;-77
2022/08/17 03:30:38;;;;;;;47.22;43.13;;;18.60;99.90;;;;;;4981207;28;20041;-77
2022/08/17 03:33:08;;;;;;;48.15;43.20;;;18.60;99.90;;;;;;4995835;28;20053;-76
2022/08/17 03:35:36;;;;;;;48.50;43.88;;;18.50;99.90;;;;;;4979271;28;20053;-77
2022/08/17 03:38:03;;;;;;;49.58;44.75;;;18.50;99.90;;;;;;5025320;28;20049;-77
2022/08/17 03:40:30;;;;;;;49.88;45.38;;;18.50;99.90;;;;;;4972436;28;20110;-77
2022/08/17 03:43:02;;;;;;;47.75;43.15;;;18.50;99.90;;;;;;5028074;28;20044;-76
2022/08/17 03:56:43;;;;;;;46.83;42.40;;;18.50;99.90;;;;;;5029207;28;20063;-76
2022/08/17 03:59:16;;;;;;;45.22;41.03;;;18.50;99.90;;;;;;5002299;28;20053;-77
2022/08/17 04:01:49;;;;;;;49.05;44.50;;;18.50;99.90;;;;;;5028457;28;20207;-77
2022/08/17 04:04:15;;;;;;;51.55;46.65;;;18.50;99.90;;;;;;5017959;28;20488;-77
2022/08/17 04:06:41;;;;;;;50.55;45.72;;;18.60;99.90;;;;;;4996567;28;20049;-76
2022/08/17 04:09:08;;;;;;;52.33;47.33;;;18.60;99.90;;;;;;5010023;28;20053;-76
2022/08/17 04:11:35;;;;;;;48.40;43.90;;;18.60;99.90;;;;;;5035683;28;20160;-76
2022/08/17 04:14:02;;;;;;;51.00;45.97;;;18.60;99.90;;;;;;5016970;28;20497;-76
2022/08/17 04:16:29;;;;;;;50.60;45.70;;;18.60;99.90;;;;;;4998629;28;20068;-77
2022/08/17 04:18:55;;;;;;;50.45;45.78;;;18.60;99.90;;;;;;5001992;28;20584;-77
2022/08/17 04:21:22;;;;;;;49.75;44.83;;;18.70;99.90;;;;;;4982998;28;20055;-77
2022/08/17 04:23:49;;;;;;;48.40;43.80;;;18.70;99.90;;;;;;5014572;28;20045;-76
2022/08/17 04:26:15;;;;;;;50.47;45.65;;;18.70;99.90;;;;;;4977929;28;20049;-76
2022/08/17 04:28:42;;;;;;;50.78;46.28;;;18.70;99.90;;;;;;5032957;28;20120;-77
2022/08/17 04:31:10;;;;;;;50.90;45.85;;;18.70;99.90;;;;;;4999964;28;20405;-76
2022/08/17 04:33:36;;;;;;;57.17;51.08;;;18.70;99.90;;;;;;5019221;28;20040;-78
2022/08/17 04:36:06;;;;;;;56.47;50.75;;;18.60;99.90;;;;;;5018248;28;20048;-76
2022/08/17 04:38:35;;;;;;;61.03;54.65;;;18.60;99.90;;;;;;4989796;28;20052;-76
2022/08/17 04:43:48;;;;;;;70.95;58.20;;;18.50;99.90;;;;;;5016788;28;20057;-77
2022/08/17 04:46:19;;;;;;;60.88;54.72;;;18.50;99.90;;;;;;5011538;28;20045;-77
2022/08/17 04:48:48;;;;;;;61.00;54.40;;;18.60;99.90;;;;;;4999178;28;20124;-78
2022/08/17 04:51:28;;;;;;;59.08;52.90;;;18.50;99.90;;;;;;5017554;28;20624;-76
2022/08/17 04:54:03;;;;;;;61.83;54.28;;;18.50;99.90;;;;;;5019192;28;20037;-76
2022/08/17 04:56:30;;;;;;;61.72;55.58;;;18.50;99.90;;;;;;4999352;28;20140;-76
2022/08/17 04:59:18;;;;;;;60.90;54.38;;;18.50;99.90;;;;;;5015974;28;20083;-76
2022/08/17 05:01:47;;;;;;;60.90;54.50;;;18.50;99.90;;;;;;5012024;28;20052;-75
2022/08/17 05:04:16;;;;;;;62.40;55.72;;;18.50;99.90;;;;;;5012972;28;20289;-76
2022/08/17 05:06:43;;;;;;;61.05;54.55;;;18.50;99.90;;;;;;5018977;28;20569;-75
2022/08/17 05:09:09;;;;;;;60.70;54.30;;;18.50;99.90;;;;;;4998497;28;20722;-75
2022/08/17 05:11:36;;;;;;;63.83;57.05;;;18.50;99.90;;;;;;5024265;28;20045;-76
2022/08/17 05:14:02;;;;;;;57.90;51.90;;;18.60;99.90;;;;;;4983356;28;20452;-76
2022/08/17 05:16:29;;;;;;;63.40;56.78;;;18.50;99.90;;;;;;4984823;28;20717;-76
2022/08/17 05:18:57;;;;;;;63.60;56.67;;;18.60;99.90;;;;;;5000599;28;20052;-76
2022/08/17 05:21:24;;;;;;;63.80;57.03;;;18.60;99.90;;;;;;4998547;28;20056;-75
2022/08/17 05:23:51;;;;;;;63.05;56.65;;;18.60;99.90;;;;;;4980808;28;21529;-76
2022/08/17 05:26:19;;;;;;;62.53;55.88;;;18.70;99.90;;;;;;4997779;28;20645;-76
2022/08/17 05:28:46;;;;;;;60.78;54.67;;;18.70;99.90;;;;;;5013816;28;20110;-76
2022/08/17 05:31:13;;;;;;;61.03;54.88;;;18.80;99.90;;;;;;5028130;28;20449;-75
2022/08/17 05:33:41;;;;;;;60.58;54.17;;;18.80;99.90;;;;;;5029031;28;20179;-76
2022/08/17 05:36:09;;;;;;;58.38;52.53;;;18.90;99.90;;;;;;4999743;28;20132;-75
2022/08/17 05:38:35;;;;;;;57.03;51.28;;;18.90;99.90;;;;;;5028991;28;20049;-75
2022/08/17 05:41:05;;;;;;;58.17;52.60;;;18.90;99.90;;;;;;4980148;28;20049;-76
2022/08/17 05:43:34;;;;;;;57.25;51.80;;;19.00;99.90;;;;;;5026414;28;20073;-75
2022/08/17 05:46:15;;;;;;;66.07;59.35;;;19.00;99.90;;;;;;5029076;28;20430;-75
2022/08/17 05:48:47;;;;;;;60.67;54.65;;;19.00;99.90;;;;;;5026280;28;21044;-76
2022/08/17 05:51:35;;;;;;;63.17;56.95;;;19.10;99.90;;;;;;5011532;28;20288;-75
2022/08/17 05:54:13;;;;;;;60.85;54.50;;;19.10;99.90;;;;;;5014334;28;20057;-76
2022/08/17 05:56:42;;;;;;;64.15;57.47;;;19.20;99.90;;;;;;5010862;28;20081;-76
2022/08/17 05:59:22;;;;;;;58.03;52.30;;;19.20;99.90;;;;;;5028894;28;20045;-75
2022/08/17 06:02:04;;;;;;;62.95;56.67;;;19.30;99.90;;;;;;5026876;28;20148;-77
2022/08/17 06:05:01;;;;;;;65.18;58.83;;;19.30;99.90;;;;;;5014597;28;20099;-76
2022/08/17 06:07:54;;;;;;;60.65;54.40;;;19.40;99.90;;;;;;5028866;28;20056;-76
2022/08/17 06:10:33;;;;;;;60.38;54.35;;;19.30;99.90;;;;;;4998663;28;20037;-75
2022/08/17 06:13:19;;;;;;;57.65;52.13;;;19.40;99.90;;;;;;5009434;28;20108;-75
2022/08/17 06:16:11;;;;;;;60.10;54.20;;;19.50;99.90;;;;;;5017215;28;20048;-75
2022/08/17 06:18:46;;;;;;;56.88;51.35;;;19.50;99.90;;;;;;5027122;28;20498;-75
2022/08/17 06:21:16;;;;;;;61.55;55.63;;;19.60;99.90;;;;;;5016160;28;20064;-75
2022/08/17 06:23:55;;;;;;;60.10;53.95;;;19.60;99.90;;;;;;5024167;28;20098;-75
2022/08/17 06:26:35;;;;;;;61.42;55.13;;;19.70;99.90;;;;;;5032897;28;20071;-76
2022/08/17 06:29:29;;;;;;;74.35;67.25;;;19.80;99.90;;;;;;5013501;28;20037;-75
2022/08/17 06:31:56;;;;;;;68.50;61.65;;;19.80;99.90;;;;;;5015081;28;20587;-76
2022/08/17 06:34:22;;;;;;;55.28;49.72;;;20.00;99.90;;;;;;5034592;28;20548;-82
2022/08/17 06:37:04;;;;;;;99.10;89.65;;;20.20;99.90;;;;;;5003149;28;20092;-76
2022/08/17 06:39:47;;;;;;;56.92;51.53;;;20.40;99.90;;;;;;5035661;28;20082;-77
2022/08/17 06:42:24;;;;;;;54.33;49.15;;;20.30;99.90;;;;;;5016961;28;20075;-77
2022/08/17 06:45:13;;;;;;;54.58;49.22;;;20.30;99.90;;;;;;5034150;28;20439;-77
2022/08/17 06:47:57;;;;;;;51.38;46.55;;;20.30;99.90;;;;;;5018667;28;20123;-77
2022/08/17 06:50:47;;;;;;;53.03;47.90;;;20.30;99.90;;;;;;5019197;28;20048;-77
2022/08/17 06:53:46;;;;;;;55.70;50.22;;;20.30;99.90;;;;;;5030415;28;20803;-77
2022/08/17 06:56:25;;;;;;;53.45;48.22;;;20.50;99.90;;;;;;5004240;28;20055;-77
2022/08/17 06:58:55;;;;;;;52.45;47.47;;;20.40;99.90;;;;;;5035947;28;20041;-77
2022/08/17 07:01:34;;;;;;;52.03;47.13;;;20.50;99.90;;;;;;5003309;28;20045;-77
2022/08/17 07:04:20;;;;;;;54.17;48.85;;;20.50;99.90;;;;;;5034418;28;20064;-77
2022/08/17 07:07:00;;;;;;;54.58;49.38;;;20.60;99.90;;;;;;5035827;28;20045;-76
2022/08/17 07:09:34;;;;;;;51.15;46.17;;;20.60;99.90;;;;;;5019922;28;20064;-77
2022/08/17 07:12:25;;;;;;;50.10;45.05;;;20.70;99.90;;;;;;5021726;28;20060;-77
2022/08/17 07:14:59;;;;;;;51.47;46.93;;;20.80;99.90;;;;;;5035554;28;20503;-77
2022/08/17 07:17:26;;;;;;;47.22;42.72;;;20.80;99.90;;;;;;5031139;28;20307;-78
2022/08/17 07:20:04;;;;;;;51.67;46.88;;;20.80;99.90;;;;;;4990181;28;20048;-77
2022/08/17 07:22:40;;;;;;;51.00;46.05;;;20.90;99.90;;;;;;5021974;28;20335;-77
2022/08/17 07:25:09;;;;;;;56.85;51.35;;;21.00;99.90;;;;;;5021796;28;20095;-77
2022/08/17 07:27:44;;;;;;;51.42;46.58;;;21.00;99.90;;;;;;5002191;28;20099;-78
2022/08/17 07:30:15;;;;;;;51.13;46.13;;;21.00;99.90;;;;;;5005226;28;20128;-77
2022/08/17 07:32:56;;;;;;;51.40;46.35;;;21.10;99.90;;;;;;5020223;28;20072;-77
2022/08/17 07:35:28;;;;;;;51.38;46.35;;;21.30;99.90;;;;;;4985608;28;20129;-78
2022/08/17 07:38:15;;;;;;;51.30;46.25;;;21.40;99.90;;;;;;5004720;28;20049;-78
2022/08/17 07:41:04;;;;;;;51.30;46.45;;;21.60;99.90;;;;;;5019224;28;20139;-78
2022/08/17 07:43:39;;;;;;;49.65;45.28;;;21.70;99.90;;;;;;5034643;28;20275;-78
2022/08/17 07:49:13;;;;;;;49.05;44.65;;;22.00;99.90;;;;;;5021386;28;20056;-77
2022/08/17 07:51:42;;;;;;;46.15;41.85;;;22.30;99.90;;;;;;5003279;28;20061;-77
2022/08/17 07:54:21;;;;;;;45.85;41.70;;;22.30;99.90;;;;;;5004644;28;20045;-78
2022/08/17 07:57:00;;;;;;;47.10;42.72;;;22.40;99.90;;;;;;5023946;28;20057;-78
2022/08/17 07:59:36;;;;;;;47.42;43.15;;;22.60;99.90;;;;;;5036425;28;20106;-77
2022/08/17 08:02:16;;;;;;;47.22;42.60;;;22.70;99.90;;;;;;5002449;28;20048;-78
2022/08/17 08:04:46;;;;;;;45.33;41.03;;;22.70;99.90;;;;;;5018114;28;20053;-78
2022/08/17 08:07:15;;;;;;;45.42;41.33;;;22.70;99.90;;;;;;5005229;28;20041;-78
2022/08/17 08:09:45;;;;;;;40.60;37.13;;;22.80;99.90;;;;;;5020414;28;20047;-77
2022/08/17 08:12:33;;;;;;;43.08;39.25;;;22.90;99.90;;;;;;5002941;28;20041;-78
2022/08/17 08:15:11;;;;;;;38.35;35.03;;;23.40;99.90;;;;;;5033691;28;20488;-78
2022/08/17 08:17:58;;;;;;;37.88;34.47;;;24.00;99.90;;;;;;5002466;28;20074;-79
2022/08/17 08:21:00;;;;;;;36.15;33.03;;;24.30;99.90;;;;;;4987055;28;20045;-78
2022/08/17 08:23:56;;;;;;;33.90;31.15;;;24.70;99.90;;;;;;5017886;28;20053;-78
2022/08/17 08:26:59;;;;;;;33.53;30.63;;;24.90;99.90;;;;;;5019573;28;20564;-78
2022/08/17 08:29:54;;;;;;;32.90;30.25;;;25.00;99.90;;;;;;5019108;28;20120;-78
2022/08/17 08:32:46;;;;;;;31.73;29.02;;;25.50;99.90;;;;;;5034179;28;20076;-78
2022/08/17 08:35:29;;;;;;;30.77;28.05;;;25.60;99.90;;;;;;5049897;28;20076;-78
2022/08/17 08:38:01;;;;;;;27.17;24.83;;;26.10;99.90;;;;;;5026461;28;20069;-78
2022/08/17 08:40:49;;;;;;;25.88;23.48;;;26.20;99.90;;;;;;5020143;28;20118;-78
2022/08/17 08:43:37;;;;;;;28.75;26.25;;;25.90;99.90;;;;;;5033788;28;20068;-78
2022/08/17 08:46:35;;;;;;;26.70;24.52;;;25.90;99.90;;;;;;5018509;28;20052;-78
2022/08/17 08:49:26;;;;;;;28.65;26.15;;;25.60;99.90;;;;;;5034573;28;20084;-78
2022/08/17 08:51:54;;;;;;;28.13;25.63;;;25.50;99.90;;;;;;5034298;28;20918;-78
2022/08/17 08:54:50;;;;;;;28.60;26.17;;;24.90;99.90;;;;;;4984182;28;20652;-78
2022/08/17 08:57:21;;;;;;;31.02;28.13;;;24.90;99.90;;;;;;5002680;28;20085;-77
2022/08/17 09:00:19;;;;;;;;;;;24.40;99.90;;;;;;4985316;28;20045;-78
2022/08/17 09:03:18;;;;;;;30.90;28.27;;;24.30;99.90;;;;;;4979803;28;19967;-78
2022/08/17 09:06:06;;;;;;;30.13;27.42;;;24.10;99.90;;;;;;4983459;28;20504;-78
2022/08/17 09:08:58;;;;;;;31.75;29.00;;;24.10;99.90;;;;;;5032512;28;20056;-78
2022/08/17 09:11:43;;;;;;;;;;;24.00;99.90;;;;;;5002332;28;20063;-78
2022/08/17 09:14:20;;;;;;;31.20;28.30;;;24.00;99.90;;;;;;5015319;28;19921;-78
2022/08/17 09:17:28;;;;;;;30.80;28.10;;;24.20;99.90;;;;;;5020774;28;20049;-78
2022/08/17 09:20:24;;;;;;;30.48;27.85;;;24.40;99.90;;;;;;5031855;28;20080;-78
2022/08/17 09:23:09;;;;;;;33.22;30.17;;;24.50;99.90;;;;;;4999132;28;20136;-78
2022/08/17 09:25:50;;;;;;;36.17;32.95;;;24.50;99.90;;;;;;5013894;28;20065;-77
2022/08/17 09:28:20;;;;;;;31.65;28.75;;;24.30;99.90;;;;;;4998679;28;20171;-78
2022/08/17 09:30:54;;;;;;;32.65;29.67;;;24.20;99.90;;;;;;5000943;28;20140;-78
2022/08/17 09:33:27;;;;;;;33.30;30.20;;;24.10;99.90;;;;;;5018463;28;20045;-77
2022/08/17 09:35:58;;;;;;;34.15;30.73;;;23.80;99.90;;;;;;5019639;28;20122;-77
2022/08/17 09:38:53;;;;;;;34.38;31.00;;;23.70;99.90;;;;;;5032907;28;20056;-77
2022/08/17 09:41:51;;;;;;;32.40;29.50;;;23.50;99.90;;;;;;5016839;28;20052;-77
2022/08/17 09:44:20;;;;;;;33.08;30.05;;;23.60;99.90;;;;;;5018627;28;20045;-77
2022/08/17 09:46:51;;;;;;;33.15;30.15;;;23.50;99.90;;;;;;5033368;28;20052;-78
2022/08/17 09:49:17;;;;;;;;;;;23.50;99.90;;;;;;5001504;28;20044;-78
2022/08/17 09:51:48;;;;;;;35.28;32.08;;;23.70;99.90;;;;;;5016423;28;19921;-77
2022/08/17 09:54:24;;;;;;;34.53;31.08;;;23.90;99.90;;;;;;5016131;28;20128;-78
2022/08/17 09:57:24;;;;;;;37.33;34.03;;;24.10;99.90;;;;;;5003746;28;20493;-78
2022/08/17 10:00:27;;;;;;;33.17;30.25;;;24.30;99.90;;;;;;5020424;28;20040;-78
2022/08/17 10:02:59;;;;;;;31.52;28.73;;;24.40;99.90;;;;;;5016953;28;20045;-78
2022/08/17 10:05:45;;;;;;;31.30;28.67;;;24.60;99.90;;;;;;5004228;28;20053;-78
2022/08/17 10:08:11;;;;;;;31.35;28.65;;;24.80;99.90;;;;;;5004348;28;20640;-79
2022/08/17 10:11:07;;;;;;;31.08;28.23;;;24.90;99.90;;;;;;5005703;28;20456;-78
2022/08/17 10:13:34;;;;;;;32.65;29.70;;;24.80;99.90;;;;;;5018325;28;20037;-78
2022/08/17 10:16:14;;;;;;;35.35;32.15;;;24.70;99.90;;;;;;4991298;28;20112;-78
2022/08/17 10:19:27;;;;;;;35.63;32.67;;;24.70;99.90;;;;;;5019943;28;20080;-78
2022/08/17 10:27:47;;;;;;;34.88;31.70;;;25.50;99.90;;;;;;5020751;28;20698;-78
2022/08/17 10:30:27;;;;;;;32.33;29.48;;;25.50;99.90;;;;;;5019731;28;20059;-78
2022/08/17 10:32:58;;;;;;;30.83;28.13;;;25.60;99.90;;;;;;5019324;28;20102;-78
2022/08/17 10:35:29;;;;;;;32.90;30.05;;;25.90;99.90;;;;;;5036695;28;20437;-78
2022/08/17 10:38:20;;;;;;;31.42;28.63;;;26.00;99.90;;;;;;5013261;28;20111;-77
2022/08/17 10:41:24;;;;;;;29.00;26.50;;;26.20;99.90;;;;;;5017364;28;20151;-79
2022/08/17 10:44:02;;;;;;;28.67;26.17;;;26.50;99.90;;;;;;5008828;28;20060;-79
2022/08/17 10:46:41;;;;;;;27.67;25.20;;;27.00;99.90;;;;;;5019617;28;20075;-79
2022/08/17 10:49:21;;;;;;;27.42;25.08;;;27.60;99.90;;;;;;5045900;28;20051;-79
2022/08/17 10:51:52;;;;;;;28.80;26.15;;;28.10;99.90;;;;;;5017385;28;20044;-79
2022/08/17 10:54:24;;;;;;;29.00;26.50;;;28.00;99.90;;;;;;5003969;28;20041;-78
2022/08/17 10:56:53;;;;;;;30.23;27.48;;;27.70;99.90;;;;;;4986470;28;20056;-78
2022/08/17 10:59:34;;;;;;;28.33;25.92;;;27.70;99.90;;;;;;5021669;28;20142;-79
2022/08/17 11:02:11;;;;;;;29.60;26.77;;;27.90;99.90;;;;;;5034747;28;20174;-78
2022/08/17 11:04:53;;;;;;;28.63;26.23;;;27.80;99.90;;;;;;5020093;28;20358;-79
2022/08/17 11:08:11;;;;;;;28.67;26.08;;;27.70;99.90;;;;;;5021192;28;20040;-79
2022/08/17 11:11:05;;;;;;;26.73;24.27;;;27.60;99.90;;;;;;4970523;28;20136;-79
2022/08/17 11:13:50;;;;;;;23.77;21.52;;;27.30;99.90;;;;;;5016031;28;20057;-78
2022/08/17 11:16:28;;;;;;;26.83;24.50;;;27.00;99.90;;;;;;5002870;28;20129;-78
2022/08/17 11:19:09;;;;;;;27.00;24.50;;;26.80;99.90;;;;;;5015662;28;20037;-77
2022/08/17 11:21:41;;;;;;;28.23;25.63;;;26.40;99.90;;;;;;5004751;28;20457;-77
2022/08/17 11:24:19;;;;;;;28.40;25.67;;;26.10;99.90;;;;;;5053500;28;20037;-78
2022/08/17 11:26:59;;;;;;;29.33;26.70;;;26.10;99.90;;;;;;4985160;28;20041;-77
2022/08/17 11:29:34;;;;;;;27.98;25.48;;;25.80;99.90;;;;;;5036826;28;20784;-78
2022/08/17 11:32:14;;;;;;;28.35;25.70;;;25.80;99.90;;;;;;5003576;28;20403;-78
2022/08/17 11:34:43;;;;;;;29.73;27.00;;;25.60;99.90;;;;;;5008813;28;20045;-78
2022/08/17 11:37:40;;;;;;;30.02;27.20;;;25.70;99.90;;;;;;5001336;28;20508;-77
2022/08/17 11:40:29;;;;;;;28.17;25.60;;;25.60;99.90;;;;;;5003356;28;20128;-77
2022/08/17 11:43:14;;;;;;;29.08;26.35;;;25.70;99.90;;;;;;4983581;28;20053;-78
2022/08/17 11:46:01;;;;;;;30.77;27.77;;;25.90;99.90;;;;;;5003472;28;20132;-78
2022/08/17 11:51:34;;;;;;;31.13;28.15;;;25.90;99.90;;;;;;5033009;28;20102;-78
2022/08/17 11:54:08;;;;;;;29.58;26.90;;;25.80;99.90;;;;;;5034921;28;20041;-78
2022/08/17 11:56:39;;;;;;;31.25;28.35;;;25.90;99.90;;;;;;5018263;28;20457;-77
2022/08/17 11:59:24;;;;;;;;;;;25.90;99.90;;;;;;5002541;28;20560;-78
2022/08/17 12:01:54;;;;;;;29.40;26.65;;;25.90;99.90;;;;;;5047720;28;20003;-77
2022/08/17 12:04:20;;;;;;;27.27;24.85;;;25.80;99.90;;;;;;5032791;28;20041;-78
2022/08/17 12:07:09;;;;;;;27.55;25.10;;;25.70;99.90;;;;;;4986516;28;20067;-76
2022/08/17 12:09:42;;;;;;;28.73;26.02;;;25.50;99.90;;;;;;5018804;28;20132;-77
2022/08/17 12:12:34;;;;;;;28.92;26.33;;;25.50;99.90;;;;;;5002918;28;20045;-77
2022/08/17 12:15:04;;;;;;;26.60;24.23;;;25.50;99.90;;;;;;5016591;28;20045;-78
2022/08/17 12:17:33;;;;;;;27.40;24.77;;;25.60;99.90;;;;;;4986403;28;20048;-77
2022/08/17 12:20:20;;;;;;;25.05;22.88;;;25.60;99.90;;;;;;5002142;28;20060;-78
2022/08/17 12:23:09;;;;;;;26.15;23.77;;;25.60;99.90;;;;;;5002352;28;20427;-78
2022/08/17 12:25:50;;;;;;;26.52;24.08;;;25.50;99.90;;;;;;5019242;28;20127;-77
2022/08/17 12:28:26;;;;;;;25.58;23.17;;;25.40;99.90;;;;;;5033408;28;20052;-77
2022/08/17 12:30:54;;;;;;;24.17;22.08;;;25.40;99.90;;;;;;5001722;28;20036;-78
2022/08/17 12:33:24;;;;;;;24.83;22.73;;;25.30;99.90;;;;;;5000840;28;20052;-78
2022/08/17 12:36:03;;;;;;;23.13;21.13;;;25.30;99.90;;;;;;5001661;28;20087;-78
2022/08/17 12:38:35;;;;;;;22.42;20.27;;;25.30;99.90;;;;;;4999288;28;20037;-78
2022/08/17 12:41:25;;;;;;;21.58;19.60;;;25.10;99.90;;;;;;5019159;28;20467;-77
2022/08/17 12:44:00;;;;;;;22.67;20.60;;;25.10;99.90;;;;;;5049596;28;20045;-77
2022/08/17 12:46:29;;;;;;;21.85;19.95;;;25.10;99.90;;;;;;5020019;28;20048;-77
2022/08/17 12:49:21;;;;;;;22.98;20.88;;;25.20;99.90;;;;;;5000805;28;20052;-77
2022/08/17 12:51:49;;;;;;;21.02;19.13;;;25.30;99.90;;;;;;5017927;28;20102;-77
2022/08/17 12:54:25;;;;;;;22.98;20.83;;;25.40;99.90;;;;;;5016035;28;20049;-77
2022/08/17 12:56:51;;;;;;;22.20;20.23;;;25.40;99.90;;;;;;5018472;28;20052;-78
2022/08/17 12:59:18;;;;;;;23.23;21.23;;;25.60;99.90;;;;;;4983506;28;20055;-78
2022/08/17 13:01:45;;;;;;;24.02;21.60;;;25.50;99.90;;;;;;5019139;28;20145;-78
2022/08/17 13:04:14;;;;;;;25.00;22.50;;;25.60;99.90;;;;;;5000773;28;20049;-77
2022/08/17 13:06:50;;;;;;;26.02;23.75;;;25.70;99.90;;;;;;5018545;28;20107;-77
2022/08/17 13:09:26;;;;;;;26.85;24.38;;;25.80;99.90;;;;;;5032519;28;20457;-78
2022/08/17 13:11:58;;;;;;;25.63;23.25;;;25.90;99.90;;;;;;5034040;28;20416;-78
2022/08/17 13:14:24;;;;;;;;;;;25.90;99.90;;;;;;5015229;28;20076;-78
2022/08/17 13:16:59;;;;;;;27.85;25.27;;;26.00;99.90;;;;;;5015798;28;20465;-78
2022/08/17 13:19:29;;;;;;;28.27;25.77;;;26.00;99.90;;;;;;5002131;28;20053;-77
2022/08/17 13:21:58;;;;;;;27.45;24.92;;;25.90;99.90;;;;;;5015097;28;20060;-78
2022/08/17 13:24:32;;;;;;;25.75;23.45;;;25.90;99.90;;;;;;4983844;28;20098;-78
2022/08/17 13:27:01;;;;;;;27.38;25.13;;;25.90;99.90;;;;;;5032400;28;20862;-78
2022/08/17 13:29:37;;;;;;;28.80;26.20;;;25.80;99.90;;;;;;4986098;28;20477;-77
2022/08/17 13:32:05;;;;;;;27.90;25.30;;;25.90;99.90;;;;;;5021139;28;20076;-77